Time;durP1;ratioP1;P1;durP2;ratioP2;P2;SDS_P1;SDS_P2;PMS_P1;PMS_P2;Temp;Humidity;BMP_temperature;BMP_pressure;BME280_temperature;BME280_humidity;BME280_pressure;Samples;Min_cycle;Max_cycle;Signal;HPM_P1;HPM_P2
2021/11/06 00:05:39;;;;;;;14.90;10.00;;;;;;;6.54;76.06;99441.88;460014;1198;98605;-41
2021/11/06 00:15:47;;;;;;;18.10;12.20;;;;;;;6.52;76.14;99442.67;460199;1193;108584;-41
2021/11/06 00:25:54;;;;;;;20.70;12.30;;;;;;;6.39;76.23;99454.52;460327;1194;98715;-40
2021/11/06 00:36:02;;;;;;;16.60;9.70;;;;;;;6.19;75.92;99464.19;460503;1194;112245;-40
2021/11/06 00:46:08;;;;;;;17.00;9.80;;;;;;;6.02;76.13;99474.68;460214;1193;108523;-41
2021/11/06 00:56:16;;;;;;;14.90;9.40;;;;;;;6.08;76.33;99480.38;460449;1193;98611;-40
2021/11/06 01:16:31;;;;;;;20.90;12.70;;;;;;;6.12;76.27;99479.39;460545;1193;99040;-41
2021/11/06 01:26:38;;;;;;;24.50;12.40;;;;;;;5.96;76.24;99482.14;460563;1193;112618;-41
2021/11/06 01:36:45;;;;;;;12.50;8.10;;;;;;;5.80;76.11;99483.32;460419;1194;108538;-41
2021/11/06 01:46:53;;;;;;;11.00;7.00;;;;;;;5.75;76.16;99477.63;460095;1196;99133;-42
2021/11/06 01:57:01;;;;;;;11.40;7.00;;;;;;;5.68;76.25;99483.83;460427;1193;112160;-41
2021/11/06 02:07:06;;;;;;;15.40;9.30;;;;;;;5.64;76.39;99484.30;460372;1193;108500;-40
2021/11/06 02:17:14;;;;;;;16.80;10.40;;;;;;;5.60;76.55;99476.02;460349;1173;97756;-42
2021/11/06 02:27:23;;;;;;;15.30;9.60;;;;;;;5.56;76.64;99472.77;459248;1196;108781;-40
2021/11/06 02:37:30;;;;;;;14.30;8.70;;;;;;;5.51;76.63;99475.51;459559;1187;98619;-40
2021/11/06 02:47:38;;;;;;;12.60;8.70;;;;;;;5.53;76.67;99477.88;459461;1196;112310;-42
2021/11/06 02:57:45;;;;;;;19.60;8.80;;;;;;;5.56;76.67;99482.05;459400;1196;108467;-40
2021/11/06 03:17:59;;;;;;;18.60;10.90;;;;;;;5.54;76.79;99486.73;459271;1202;112310;-41
2021/11/06 03:28:06;;;;;;;17.00;11.20;;;;;;;5.26;76.74;99496.86;459309;1197;108537;-41
2021/11/06 03:38:14;;;;;;;14.30;10.70;;;;;;;5.24;76.91;99498.16;458519;1197;98727;-41
2021/11/06 03:48:21;;;;;;;12.90;9.50;;;;;;;5.37;77.03;99508.95;459447;1195;108496;-40
2021/11/06 03:58:29;;;;;;;14.60;9.70;;;;;;;5.57;77.10;99517.95;459084;1196;98142;-40
2021/11/06 04:08:36;;;;;;;13.90;9.60;;;;;;;5.71;77.17;99520.77;459092;1196;112805;-40
2021/11/06 04:18:44;;;;;;;18.40;11.80;;;;;;;5.78;77.21;99514.21;459417;1195;109504;-42
2021/11/06 04:28:51;;;;;;;19.30;12.60;;;;;;;5.78;77.33;99516.73;459346;1196;99083;-41
2021/11/06 04:38:58;;;;;;;20.10;12.40;;;;;;;5.74;77.21;99525.69;459634;1196;108687;-42
2021/11/06 04:49:06;;;;;;;15.20;10.00;;;;;;;5.48;76.92;99539.43;459232;1196;99153;-41
2021/11/06 04:59:14;;;;;;;13.10;9.00;;;;;;;5.47;77.13;99545.67;459366;1195;112048;-42
2021/11/06 05:09:21;;;;;;;12.20;9.30;;;;;;;5.53;77.17;99553.80;459045;1196;108550;-40
2021/11/06 05:19:29;;;;;;;21.60;13.40;;;;;;;5.46;77.11;99559.48;459331;1196;98682;-43
2021/11/06 05:29:37;;;;;;;25.60;15.70;;;;;;;5.19;77.08;99567.23;459038;1196;108726;-40
2021/11/06 05:39:44;;;;;;;27.50;17.90;;;;;;;4.90;77.18;99576.27;459427;1196;99031;-43
2021/11/06 05:49:51;;;;;;;20.20;14.30;;;;;;;4.67;77.16;99582.09;458891;1196;112160;-40
2021/11/06 06:00:13;;;;;;;27.60;16.30;;;;;;;4.59;77.31;99596.09;459380;1195;109031;-42
2021/11/06 06:10:21;;;;;;;23.80;12.70;;;;;;;4.69;77.46;99600.77;459388;1193;99063;-40
2021/11/06 06:20:29;;;;;;;20.80;14.00;;;;;;;4.88;77.70;99606.88;459259;1196;107519;-40
2021/11/06 06:30:38;;;;;;;22.90;14.00;;;;;;;5.10;77.75;99619.09;459167;1196;98621;-39
2021/11/06 06:40:46;;;;;;;22.10;14.30;;;;;;;5.34;77.76;99624.33;459268;1195;112247;-40
2021/11/06 06:50:53;;;;;;;23.90;14.40;;;;;;;5.59;77.77;99620.62;459553;1196;108493;-42
2021/11/06 07:01:01;;;;;;;18.30;11.60;;;;;;;5.82;77.54;99633.69;459431;1196;99151;-41
2021/11/06 07:11:07;;;;;;;16.60;11.00;;;;;;;6.18;77.47;99650.62;459426;1195;108435;-41
2021/11/06 07:21:15;;;;;;;23.80;13.60;;;;;;;6.59;77.29;99659.57;459334;1187;98614;-41
2021/11/06 07:31:23;;;;;;;20.10;13.80;;;;;;;6.92;77.30;99659.09;459445;1196;112156;-40
2021/11/06 07:41:31;;;;;;;19.40;12.00;;;;;;;7.35;77.08;99662.54;459449;1181;108530;-40
2021/11/06 07:51:38;;;;;;;20.10;11.70;;;;;;;7.79;76.84;99662.69;459551;1195;99097;-42
2021/11/06 08:01:45;;;;;;;15.70;10.40;;;;;;;8.34;76.43;99670.94;459066;1196;112140;-42
2021/11/06 08:11:52;;;;;;;31.80;19.60;;;;;;;8.53;75.87;99672.70;459358;1196;108630;-42
2021/11/06 08:22:00;;;;;;;15.40;9.70;;;;;;;8.79;75.75;99670.02;459222;1196;99067;-42
2021/11/06 08:32:08;;;;;;;20.50;12.40;;;;;;;8.90;75.21;99677.25;459254;1196;112150;-41
2021/11/06 08:42:16;;;;;;;14.70;9.50;;;;;;;9.16;74.61;99681.80;459279;1197;107428;-42
2021/11/06 08:52:23;;;;;;;13.70;7.40;;;;;;;9.51;74.09;99679.48;459382;1196;99060;-41
2021/11/06 09:02:31;;;;;;;9.10;7.10;;;;;;;9.85;73.22;99686.20;459613;1195;108540;-40
2021/11/06 09:12:39;;;;;;;20.40;13.50;;;;;;;10.02;72.56;99687.95;459349;1196;98625;-41
2021/11/06 09:22:48;;;;;;;14.40;9.50;;;;;;;10.26;71.77;99694.03;458900;1197;112485;-42
2021/11/06 09:32:55;;;;;;;15.40;9.20;;;;;;;10.43;71.20;99703.98;458571;1196;108604;-41
2021/11/06 09:43:03;;;;;;;13.20;8.20;;;;;;;10.66;70.25;99700.04;459175;1195;97760;-41
2021/11/06 09:53:10;;;;;;;13.50;8.30;;;;;;;10.42;69.95;99695.95;459056;1196;112202;-42
2021/11/06 10:03:17;;;;;;;18.40;11.40;;;;;;;10.39;69.88;99686.33;459033;1197;106845;-41
2021/11/06 10:13:23;;;;;;;8.60;5.90;;;;;;;10.50;69.71;99682.83;458883;1196;99041;-41
2021/11/06 10:23:29;;;;;;;8.10;5.00;;;;;;;10.58;68.98;99671.39;458843;1197;108687;-40
2021/11/06 10:33:44;;;;;;;10.60;7.40;;;;;;;10.74;68.77;99665.45;458972;1196;99746;-40
2021/11/06 10:43:51;;;;;;;13.00;8.40;;;;;;;10.90;68.61;99653.73;458543;1196;112017;-41
2021/11/06 10:54:01;;;;;;;6.60;4.00;;;;;;;10.96;68.39;99644.82;458822;1196;108851;-40
2021/11/06 11:04:10;;;;;;;7.10;4.60;;;;;;;10.83;67.28;99637.36;458809;1196;98651;-42
2021/11/06 11:14:22;;;;;;;7.80;4.90;;;;;;;10.76;67.53;99625.96;459095;1195;110865;-41
2021/11/06 11:24:30;;;;;;;6.70;3.80;;;;;;;10.95;67.11;99615.91;459307;1195;108484;-43
2021/11/06 11:34:37;;;;;;;8.00;4.60;;;;;;;11.11;66.64;99613.25;459593;1196;99032;-41
2021/11/06 11:55:31;;;;;;;8.30;5.40;;;;;;;11.25;65.01;99611.13;459402;1196;107296;-42
2021/11/06 12:15:54;;;;;;;7.90;4.60;;;;;;;11.20;62.92;99593.31;459316;1196;105740;-41
2021/11/06 12:26:12;;;;;;;8.10;4.80;;;;;;;11.14;62.15;99588.38;459566;1195;99665;-41
2021/11/06 12:36:21;;;;;;;10.00;4.50;;;;;;;11.11;61.93;99591.39;459506;1196;112861;-41
2021/11/06 12:46:30;;;;;;;9.60;6.20;;;;;;;11.11;62.48;99588.59;459348;1196;108608;-41
2021/11/06 12:56:37;;;;;;;8.20;4.80;;;;;;;10.84;62.06;99591.59;459543;1196;99031;-42
2021/11/06 13:06:48;;;;;;;5.90;3.90;;;;;;;10.65;61.71;99582.44;459290;1197;112158;-41
2021/11/06 13:17:00;;;;;;;7.60;3.80;;;;;;;10.49;61.99;99576.95;459439;1197;108679;-41
2021/11/06 13:27:06;;;;;;;6.60;3.60;;;;;;;10.45;62.46;99569.34;459422;1196;99066;-42
2021/11/06 13:37:16;;;;;;;12.50;6.40;;;;;;;10.36;62.64;99567.23;459204;1195;108438;-41
2021/11/06 13:47:24;;;;;;;9.10;5.20;;;;;;;10.29;62.77;99564.10;459558;1196;97750;-41
2021/11/06 13:57:32;;;;;;;12.50;7.50;;;;;;;10.16;62.72;99556.93;459210;1197;111916;-40
2021/11/06 14:07:42;;;;;;;8.90;5.00;;;;;;;10.01;62.61;99566.48;459134;1196;108373;-42
2021/11/06 14:28:08;;;;;;;11.10;6.10;;;;;;;9.70;62.97;99552.67;459391;1196;108537;-41
2021/11/06 14:38:15;;;;;;;13.20;7.40;;;;;;;9.39;63.25;99542.88;459477;1196;99037;-42
2021/11/06 14:48:23;;;;;;;16.70;10.00;;;;;;;9.05;63.70;99536.59;459360;1196;112374;-40
2021/11/06 14:58:49;;;;;;;13.90;8.90;;;;;;;8.82;63.84;99539.83;459075;1196;109253;-45
2021/11/06 15:08:57;;;;;;;31.40;17.30;;;;;;;8.61;64.16;99535.87;459097;1196;99078;-39
2021/11/06 15:19:05;;;;;;;18.60;9.70;;;;;;;8.39;64.49;99536.37;459679;1196;112184;-43
2021/11/06 15:29:13;;;;;;;38.20;16.80;;;;;;;8.09;64.70;99540.27;459407;1196;108616;-41
2021/11/06 15:39:20;;;;;;;32.00;15.70;;;;;;;7.75;64.89;99539.47;459659;1197;99125;-41
2021/11/06 15:49:28;;;;;;;44.00;18.70;;;;;;;7.46;65.16;99536.86;459451;1196;112167;-41
2021/11/06 15:59:41;;;;;;;77.60;40.10;;;;;;;7.25;65.55;99545.64;459609;1196;108523;-40
2021/11/06 16:09:48;;;;;;;27.00;15.20;;;;;;;7.09;65.62;99543.66;459160;1197;98568;-42
2021/11/06 16:30:01;;;;;;;23.60;13.60;;;;;;;6.96;66.29;99549.25;459449;1197;107511;-42
2021/11/06 16:40:12;;;;;;;31.40;15.40;;;;;;;6.75;66.44;99544.25;459331;1196;99137;-40
2021/11/06 16:50:22;;;;;;;38.80;23.90;;;;;;;6.43;66.55;99543.81;459693;1196;108553;-41
2021/11/06 17:00:30;;;;;;;95.90;48.40;;;;;;;6.06;66.78;99551.36;459181;1196;99168;-41
2021/11/06 17:10:34;;;;;;;100.30;52.30;;;;;;;5.76;67.13;99557.10;459584;1196;112164;-41
2021/11/06 17:20:43;;;;;;;108.70;57.30;;;;;;;5.61;67.45;99556.31;459249;1196;99050;-41
2021/11/06 17:30:50;;;;;;;130.40;69.20;;;;;;;5.56;67.70;99555.54;459522;1197;99047;-40
2021/11/06 17:40:54;;;;;;;201.40;94.80;;;;;;;5.43;67.99;99546.71;459170;1196;111776;-41
2021/11/06 18:01:09;;;;;;;195.50;95.60;;;;;;;5.00;68.61;99538.27;459454;1196;98596;-41
2021/11/06 18:11:16;;;;;;;140.20;70.40;;;;;;;4.87;68.80;99531.55;459618;1188;112136;-41
2021/11/06 18:21:25;;;;;;;122.70;61.70;;;;;;;4.77;68.99;99522.66;459135;1196;108466;-40
2021/11/06 18:31:32;;;;;;;107.90;59.50;;;;;;;4.76;69.29;99515.42;459357;1197;98653;-43
2021/11/06 18:41:39;;;;;;;159.20;74.40;;;;;;;4.72;69.51;99510.16;459438;1196;108547;-42
2021/11/06 18:51:48;;;;;;;160.10;79.40;;;;;;;4.56;69.69;99504.07;459126;1196;99309;-42
2021/11/06 19:01:55;;;;;;;155.90;72.10;;;;;;;4.43;70.09;99503.13;459698;1196;112225;-42
2021/11/06 19:12:02;;;;;;;85.00;44.60;;;;;;;4.41;70.28;99503.79;459286;1197;109413;-45
2021/11/06 19:22:09;;;;;;;81.20;41.20;;;;;;;4.40;70.26;99506.73;459380;1196;97738;-40
2021/11/06 19:42:19;;;;;;;103.50;47.60;;;;;;;4.30;70.53;99495.94;459430;1197;108859;-41
2021/11/06 19:52:26;;;;;;;153.20;70.10;;;;;;;4.06;70.58;99479.23;459302;1196;99044;-41
2021/11/06 20:02:34;;;;;;;145.40;67.20;;;;;;;3.76;70.62;99479.29;459086;1200;111974;-41
2021/11/06 20:12:42;;;;;;;132.10;60.00;;;;;;;3.49;70.87;99475.84;459470;1196;108534;-40
2021/11/06 20:32:58;;;;;;;127.60;63.80;;;;;;;3.34;71.39;99454.70;459426;1197;112253;-41
2021/11/06 20:43:05;;;;;;;118.40;60.40;;;;;;;3.24;71.54;99438.21;458870;1197;106561;-41
2021/11/06 20:53:13;;;;;;;96.30;46.70;;;;;;;3.17;71.93;99430.28;459472;1192;99114;-40
2021/11/06 21:03:21;;;;;;;82.80;41.50;;;;;;;3.16;72.18;99419.23;458817;1196;108513;-41
2021/11/06 21:23:42;;;;;;;124.00;55.40;;;;;;;2.97;72.74;99392.47;459249;1196;111910;-41
2021/11/06 21:33:52;;;;;;;111.70;62.70;;;;;;;2.84;73.02;99383.73;459219;1197;107421;-40
2021/11/06 21:44:00;;;;;;;64.90;36.00;;;;;;;2.81;73.29;99373.51;459169;1196;99076;-41
2021/11/06 21:54:09;;;;;;;58.00;30.30;;;;;;;2.83;73.49;99363.98;459107;1196;110733;-40
2021/11/06 22:04:17;;;;;;;51.70;35.10;;;;;;;2.91;73.87;99355.09;459243;1197;108530;-40
2021/11/06 22:14:21;;;;;;;83.10;48.90;;;;;;;2.90;73.80;99354.79;459176;1196;99058;-40
2021/11/06 22:24:29;;;;;;;44.00;25.10;;;;;;;2.87;74.09;99356.27;458886;1196;108541;-40
2021/11/06 22:34:39;;;;;;;49.80;26.00;;;;;;;2.94;74.31;99352.08;458560;1197;99067;-40
2021/11/06 22:44:47;;;;;;;42.60;24.90;;;;;;;3.00;74.39;99339.86;458683;1196;112329;-41
2021/11/06 23:05:03;;;;;;;46.40;25.50;;;;;;;3.06;74.66;99311.23;459127;1196;98763;-40
2021/11/06 23:15:12;;;;;;;68.30;32.50;;;;;;;3.01;74.83;99297.14;458673;1196;109183;-42
2021/11/06 23:25:21;;;;;;;63.70;33.60;;;;;;;2.87;75.18;99277.02;459026;1200;107525;-39
2021/11/06 23:45:36;;;;;;;40.80;24.40;;;;;;;2.78;75.57;99245.80;458997;1181;108511;-40
2021/11/06 23:55:52;;;;;;;49.30;27.30;;;;;;;2.84;75.63;99235.80;458779;1196;99024;-41
